Terminal Aerodrome Forecast
Issued by NWS Melbourne, FL

Home | Current Version | Previous Version | Text Only | Print | Product List | Glossary On
Versions: 1 2 3 4 5 6 7 8 9 10 11 12 13 14 15 16 17 18 19
000
FTUS42 KMLB 191700
TAFMLB
TAF
KMLB 191725Z 1918/2018 24011KT P6SM SCT020 BKN035 OVC050
     FM200100 27010KT P6SM SCT012 BKN020
      TEMPO 2010/2014 BKN012
     FM201400 33011KT P6SM SCT025 BKN040
      TEMPO 2014/2018 BKN025=

USA.gov is the U.S. government's official web portal to all federal, state and local government web resources and services.